createdAt,value
2023-04-19T00:01:45.281Z,4.47
2023-04-19T00:04:13.261Z,4.60
2023-04-19T00:06:42.205Z,3.53
2023-04-19T00:09:09.470Z,4.45
2023-04-19T00:11:36.867Z,4.38
2023-04-19T00:14:04.162Z,4.47
2023-04-19T00:16:31.449Z,4.30
2023-04-19T00:18:59.001Z,4.35
2023-04-19T00:21:26.621Z,5.05
2023-04-19T00:23:54.248Z,4.13
2023-04-19T00:26:22.312Z,4.30
2023-04-19T00:28:52.584Z,4.55
2023-04-19T00:31:19.691Z,3.72
2023-04-19T00:33:46.914Z,5.25
2023-04-19T00:36:13.876Z,4.85
2023-04-19T00:38:41.672Z,4.43
2023-04-19T00:41:10.801Z,4.43
2023-04-19T00:43:38.310Z,4.80
2023-04-19T00:46:06.873Z,4.00
2023-04-19T00:48:36.405Z,4.78
2023-04-19T00:51:04.956Z,4.07
2023-04-19T00:53:32.648Z,4.20
2023-04-19T00:56:04.617Z,4.32
2023-04-19T00:58:32.751Z,4.45
2023-04-19T01:01:00.483Z,5.07
2023-04-19T01:03:29.434Z,4.03
2023-04-19T01:05:57.398Z,4.60
2023-04-19T01:08:24.852Z,4.32
2023-04-19T01:10:54.044Z,4.95
2023-04-19T01:13:21.333Z,5.18
2023-04-19T01:15:48.650Z,5.60
2023-04-19T01:18:17.129Z,5.35
2023-04-19T01:20:43.992Z,5.90
2023-04-19T01:23:12.468Z,5.40
2023-04-19T01:25:39.461Z,6.22
2023-04-19T01:28:06.854Z,5.70
2023-04-19T01:30:35.873Z,6.43
2023-04-19T01:33:03.762Z,6.20
2023-04-19T01:35:30.692Z,6.93
2023-04-19T01:37:58.315Z,6.53
2023-04-19T01:40:26.114Z,7.32
2023-04-19T01:42:53.635Z,6.53
2023-04-19T01:45:20.622Z,7.28
2023-04-19T01:47:52.180Z,6.97
2023-04-19T01:50:19.494Z,7.50
2023-04-19T01:52:46.730Z,7.90
2023-04-19T01:55:14.096Z,7.45
2023-04-19T01:57:41.244Z,8.07
2023-04-19T02:00:09.300Z,7.75
2023-04-19T02:02:42.188Z,8.40
2023-04-19T02:05:10.319Z,8.27
2023-04-19T02:07:38.021Z,7.93
2023-04-19T02:10:06.290Z,7.72
2023-04-19T02:12:34.589Z,8.65
2023-04-19T02:15:04.066Z,8.93
2023-04-19T02:17:31.726Z,9.27
2023-04-19T02:20:00.378Z,10.23
2023-04-19T02:22:27.839Z,10.48
2023-04-19T02:24:54.737Z,10.00
2023-04-19T02:27:29.051Z,10.57
2023-04-19T02:29:56.718Z,10.80
2023-04-19T02:32:24.907Z,11.00
2023-04-19T02:34:52.026Z,10.25
2023-04-19T02:37:19.222Z,9.57
2023-04-19T02:39:46.408Z,10.10
2023-04-19T02:42:13.590Z,9.43
2023-04-19T02:44:40.749Z,9.07
2023-04-19T02:47:08.250Z,9.98
2023-04-19T02:49:38.008Z,9.55
2023-04-19T02:52:05.683Z,9.75
2023-04-19T02:54:33.770Z,9.88
2023-04-19T02:57:01.150Z,9.32
2023-04-19T02:59:28.452Z,10.30
2023-04-19T03:01:58.688Z,9.70
2023-04-19T03:04:26.029Z,9.63
2023-04-19T03:06:53.182Z,9.27
2023-04-19T03:09:20.621Z,10.20
2023-04-19T03:11:47.725Z,8.88
2023-04-19T03:14:16.325Z,10.07
2023-04-19T03:16:44.017Z,10.48
2023-04-19T03:19:10.900Z,9.35
2023-04-19T03:21:45.729Z,8.98
2023-04-19T03:24:13.170Z,9.52
2023-04-19T03:26:45.379Z,7.60
2023-04-19T03:29:14.346Z,8.02
2023-04-19T03:31:48.877Z,7.50
2023-04-19T03:34:16.573Z,5.95
2023-04-19T03:36:46.659Z,7.43
2023-04-19T03:39:13.622Z,6.40
2023-04-19T03:41:43.281Z,7.22
2023-04-19T03:44:23.781Z,7.97
2023-04-19T03:46:51.047Z,8.88
2023-04-19T03:49:22.706Z,8.80
2023-04-19T03:51:55.836Z,9.00
2023-04-19T03:54:23.152Z,9.80
2023-04-19T03:56:50.357Z,10.35
2023-04-19T03:59:17.666Z,10.70
2023-04-19T04:01:45.208Z,11.07
2023-04-19T04:04:13.248Z,10.88
2023-04-19T04:06:41.286Z,11.00
2023-04-19T04:09:08.236Z,10.82
2023-04-19T04:11:35.779Z,10.18
2023-04-19T04:14:02.769Z,9.63
2023-04-19T04:16:33.107Z,9.68
2023-04-19T04:19:00.299Z,10.27
2023-04-19T04:21:28.907Z,8.30
2023-04-19T04:24:01.894Z,10.82
2023-04-19T04:27:01.001Z,10.63
2023-04-19T04:29:33.026Z,9.63
2023-04-19T04:32:04.812Z,8.63
2023-04-19T04:34:38.599Z,7.00
2023-04-19T04:37:11.906Z,6.55
2023-04-19T04:39:39.881Z,7.05
2023-04-19T04:42:09.218Z,6.18
2023-04-19T04:44:37.354Z,5.78
2023-04-19T04:47:05.408Z,6.20
2023-04-19T04:49:38.601Z,7.28
2023-04-19T04:52:06.602Z,7.50
2023-04-19T04:54:39.083Z,8.27
2023-04-19T04:57:14.553Z,8.35
2023-04-19T04:59:41.760Z,8.25
2023-04-19T05:02:09.330Z,9.45
2023-04-19T05:04:36.449Z,9.82
2023-04-19T05:07:04.433Z,9.73
2023-04-19T05:09:32.084Z,10.27
2023-04-19T05:11:59.277Z,9.52
2023-04-19T05:14:26.660Z,9.32
2023-04-19T05:16:54.054Z,10.25
2023-04-19T05:19:21.223Z,10.55
2023-04-19T05:21:54.877Z,10.45
2023-04-19T05:24:23.375Z,10.40
2023-04-19T05:26:51.565Z,10.07
2023-04-19T05:29:19.115Z,10.10
2023-04-19T05:31:52.410Z,12.52
2023-04-19T05:34:24.432Z,10.77
2023-04-19T05:36:53.992Z,10.90
2023-04-19T05:39:21.173Z,11.77
2023-04-19T05:41:48.481Z,11.07
2023-04-19T05:44:17.185Z,11.73
2023-04-19T05:46:45.228Z,12.57
2023-04-19T05:49:16.321Z,12.02
2023-04-19T05:52:07.020Z,12.05
2023-04-19T05:54:40.070Z,12.25
2023-04-19T05:57:07.708Z,11.52
2023-04-19T05:59:34.721Z,11.00
2023-04-19T06:02:03.114Z,11.90
2023-04-19T06:04:30.833Z,12.52
2023-04-19T06:06:58.180Z,13.15
2023-04-19T06:09:25.833Z,13.10
2023-04-19T06:11:54.913Z,13.38
2023-04-19T06:14:22.656Z,13.65
2023-04-19T06:16:51.326Z,15.35
2023-04-19T06:19:18.559Z,15.05
2023-04-19T06:21:46.226Z,14.65
2023-04-19T06:24:13.630Z,15.45
2023-04-19T06:26:41.175Z,15.40
2023-04-19T06:29:08.256Z,13.98
2023-04-19T06:31:35.495Z,14.25
2023-04-19T06:34:02.669Z,14.35
2023-04-19T06:36:29.975Z,14.77
2023-04-19T06:38:57.467Z,14.73
2023-04-19T06:41:25.177Z,13.80
2023-04-19T06:43:52.407Z,15.20
2023-04-19T06:46:19.984Z,17.90
2023-04-19T06:48:47.009Z,15.77
2023-04-19T06:51:14.597Z,14.50
2023-04-19T06:53:41.577Z,14.25
2023-04-19T06:56:10.316Z,14.75
2023-04-19T06:58:37.286Z,13.63
2023-04-19T07:01:05.416Z,14.88
2023-04-19T07:03:32.897Z,14.15
2023-04-19T07:06:01.156Z,13.52
2023-04-19T07:08:42.476Z,12.73
2023-04-19T07:11:16.661Z,13.32
2023-04-19T07:13:43.691Z,14.32
2023-04-19T07:16:10.881Z,13.23
2023-04-19T07:18:37.860Z,13.63
2023-04-19T07:21:05.446Z,14.40
2023-04-19T07:23:32.646Z,15.40
2023-04-19T07:26:00.079Z,13.70
2023-04-19T07:28:29.351Z,15.75
2023-04-19T07:30:57.751Z,14.52
2023-04-19T07:33:28.437Z,13.27
2023-04-19T07:35:56.719Z,13.10
2023-04-19T07:38:25.220Z,13.48
2023-04-19T07:40:52.779Z,14.20
2023-04-19T07:43:19.799Z,12.32
2023-04-19T07:45:47.387Z,11.98
2023-04-19T07:48:14.220Z,12.43
2023-04-19T07:50:41.854Z,13.18
2023-04-19T07:53:08.764Z,12.38
2023-04-19T07:55:36.387Z,12.55
2023-04-19T07:58:03.333Z,10.75
2023-04-19T08:00:31.633Z,10.68
2023-04-19T08:02:58.736Z,11.10
2023-04-19T08:05:27.797Z,9.73
2023-04-19T08:07:54.744Z,10.02
2023-04-19T08:10:22.535Z,9.45
2023-04-19T08:13:04.267Z,10.07
2023-04-19T08:16:07.824Z,10.50
2023-04-19T08:18:22.136Z,10.00
2023-04-19T08:20:49.578Z,9.18
2023-04-19T08:23:22.969Z,9.40
2023-04-19T08:25:52.197Z,10.32
2023-04-19T08:28:19.347Z,9.60
2023-04-19T08:30:47.207Z,9.80
2023-04-19T08:33:14.313Z,9.45
2023-04-19T08:35:41.967Z,9.30
2023-04-19T08:38:09.837Z,9.90
2023-04-19T08:40:44.134Z,9.65
2023-04-19T08:43:11.899Z,10.85
2023-04-19T08:45:39.541Z,11.30
2023-04-19T08:48:10.714Z,9.98
2023-04-19T08:53:23.802Z,10.32
2023-04-19T08:56:12.799Z,9.57
2023-04-19T08:59:00.997Z,9.48
2023-04-19T09:01:35.855Z,8.93
2023-04-19T09:04:26.551Z,8.93
2023-04-19T09:06:55.914Z,7.78
2023-04-19T09:12:00.748Z,8.45
2023-04-19T09:14:29.386Z,7.90
2023-04-19T09:17:15.836Z,8.35
2023-04-19T09:19:48.219Z,8.43
2023-04-19T09:22:16.598Z,9.15
2023-04-19T09:27:18.269Z,8.50
2023-04-19T09:29:54.280Z,8.10
2023-04-19T09:32:22.870Z,8.88
2023-04-19T09:34:58.268Z,8.38
2023-04-19T09:37:51.310Z,8.40
2023-04-19T09:40:24.602Z,8.57
2023-04-19T09:48:04.838Z,8.25
2023-04-19T09:50:33.717Z,7.82
2023-04-19T09:53:06.939Z,8.02
2023-04-19T09:55:48.502Z,8.35
2023-04-19T09:58:23.843Z,8.45
2023-04-19T10:00:57.207Z,7.90
2023-04-19T10:03:30.237Z,8.45
2023-04-19T10:06:02.048Z,8.48
2023-04-19T10:08:34.545Z,8.32
2023-04-19T10:11:01.708Z,7.80
2023-04-19T10:13:29.324Z,8.07
2023-04-19T10:16:01.760Z,7.82
2023-04-19T10:18:36.568Z,9.05
2023-04-19T10:21:07.574Z,7.85
2023-04-19T10:23:37.393Z,8.60
2023-04-19T10:26:04.400Z,8.35
2023-04-19T10:28:34.172Z,8.35
2023-04-19T10:31:03.553Z,7.95
2023-04-19T10:33:35.759Z,8.15
2023-04-19T10:36:03.917Z,8.40
2023-04-19T10:38:44.391Z,8.95
2023-04-19T10:41:15.519Z,9.90
2023-04-19T10:43:48.863Z,9.48
2023-04-19T10:46:22.277Z,9.27
2023-04-19T10:48:53.471Z,9.35
2023-04-19T10:51:24.013Z,9.13
2023-04-19T10:53:56.066Z,8.68
2023-04-19T10:59:12.573Z,8.75
2023-04-19T11:01:53.347Z,8.75
2023-04-19T11:04:24.234Z,8.85
2023-04-19T11:06:51.755Z,9.18
2023-04-19T11:09:25.744Z,8.77
2023-04-19T11:11:54.557Z,8.93
2023-04-19T11:14:22.024Z,8.15
2023-04-19T11:16:49.175Z,9.05
2023-04-19T11:19:17.657Z,8.70
2023-04-19T11:21:49.532Z,8.80
2023-04-19T11:24:19.122Z,8.55
2023-04-19T11:26:47.364Z,7.90
2023-04-19T11:29:15.795Z,7.78
2023-04-19T11:31:46.818Z,8.15
2023-04-19T11:34:14.961Z,6.97
2023-04-19T11:36:52.665Z,7.22
2023-04-19T11:39:22.078Z,7.80
2023-04-19T11:41:49.603Z,7.50
2023-04-19T11:44:22.133Z,7.70
2023-04-19T11:47:03.279Z,7.45
2023-04-19T11:49:33.470Z,7.38
2023-04-19T11:52:05.345Z,7.50
2023-04-19T11:54:33.960Z,7.80
2023-04-19T11:57:03.897Z,8.23
2023-04-19T11:59:33.139Z,7.73
2023-04-19T12:02:13.067Z,6.88
2023-04-19T12:04:41.216Z,7.07
2023-04-19T12:07:10.656Z,7.50
2023-04-19T12:09:39.594Z,6.97
2023-04-19T12:12:06.996Z,6.95
2023-04-19T12:14:34.528Z,7.13
2023-04-19T12:17:13.640Z,7.30
2023-04-19T12:19:48.025Z,6.30
2023-04-19T12:22:17.499Z,7.07
2023-04-19T12:24:45.074Z,6.80
2023-04-19T12:27:12.839Z,6.60
2023-04-19T12:29:40.052Z,6.65
2023-04-19T12:32:07.387Z,7.40
2023-04-19T12:34:34.530Z,7.18
2023-04-19T12:37:04.331Z,6.88
2023-04-19T12:39:31.783Z,7.05
2023-04-19T12:41:59.219Z,7.70
2023-04-19T12:44:26.649Z,7.85
2023-04-19T12:46:57.716Z,7.15
2023-04-19T12:54:20.316Z,7.93
2023-04-19T12:56:47.666Z,6.43
2023-04-19T12:59:15.276Z,5.97
2023-04-19T13:01:42.777Z,5.85
2023-04-19T13:04:12.315Z,5.97
2023-04-19T13:06:40.440Z,5.10
2023-04-19T13:09:14.190Z,5.35
2023-04-19T13:11:42.686Z,5.35
2023-04-19T13:14:09.614Z,4.65
2023-04-19T13:16:37.090Z,5.45
2023-04-19T13:19:04.343Z,4.53
2023-04-19T13:21:31.971Z,5.43
2023-04-19T13:23:59.193Z,5.72
2023-04-19T13:26:27.060Z,4.90
2023-04-19T13:28:53.890Z,4.68
2023-04-19T13:31:21.252Z,5.28
2023-04-19T13:33:48.213Z,5.15
2023-04-19T13:36:15.779Z,5.55
2023-04-19T13:38:42.714Z,5.40
2023-04-19T13:41:10.457Z,5.18
2023-04-19T13:43:37.634Z,5.97
2023-04-19T13:46:06.026Z,5.50
2023-04-19T13:48:33.066Z,5.85
2023-04-19T13:51:00.412Z,5.78
2023-04-19T13:53:29.045Z,5.50
2023-04-19T13:55:57.391Z,5.88
2023-04-19T13:58:27.453Z,5.95
2023-04-19T14:00:54.857Z,5.82
2023-04-19T14:03:23.211Z,6.45
2023-04-19T14:05:51.275Z,6.45
2023-04-19T14:08:18.259Z,6.18
2023-04-19T14:10:45.539Z,5.60
2023-04-19T14:13:12.559Z,6.03
2023-04-19T14:15:40.455Z,5.65
2023-04-19T14:18:07.302Z,6.38
2023-04-19T14:20:35.177Z,5.15
2023-04-19T14:23:02.492Z,6.70
2023-04-19T14:25:30.195Z,6.50
2023-04-19T14:27:59.460Z,7.03
2023-04-19T14:30:27.683Z,7.65
2023-04-19T14:32:55.851Z,7.18
2023-04-19T14:35:23.478Z,5.80
2023-04-19T14:37:50.545Z,6.05
2023-04-19T14:40:20.165Z,5.70
2023-04-19T14:42:47.168Z,6.38
2023-04-19T14:45:14.918Z,6.53
2023-04-19T14:47:42.081Z,7.15
2023-04-19T14:50:10.004Z,6.47
2023-04-19T14:52:37.075Z,6.35
2023-04-19T14:55:05.079Z,5.88
2023-04-19T14:57:32.179Z,6.15
2023-04-19T15:00:01.121Z,6.60
2023-04-19T15:02:28.587Z,7.20
2023-04-19T15:04:57.117Z,6.35
2023-04-19T15:07:24.205Z,6.30
2023-04-19T15:09:51.713Z,6.32
2023-04-19T15:12:18.950Z,6.43
2023-04-19T15:14:46.414Z,7.13
2023-04-19T15:17:13.437Z,6.60
2023-04-19T15:19:41.002Z,6.20
2023-04-19T15:22:08.284Z,5.97
2023-04-19T15:24:36.156Z,7.18
2023-04-19T15:27:04.303Z,6.65
2023-04-19T15:29:32.159Z,5.45
2023-04-19T15:31:59.261Z,4.40
2023-04-19T15:34:27.144Z,5.28
2023-04-19T15:36:54.166Z,3.90
2023-04-19T15:39:22.319Z,4.10
2023-04-19T15:41:49.745Z,3.70
2023-04-19T15:44:17.454Z,5.28
2023-04-19T15:46:44.603Z,4.18
2023-04-19T15:49:12.500Z,4.28
2023-04-19T15:51:39.583Z,5.03
2023-04-19T15:54:07.222Z,4.78
2023-04-19T15:56:34.234Z,4.90
2023-04-19T15:59:01.418Z,4.05
2023-04-19T16:01:28.792Z,3.88
2023-04-19T16:03:56.180Z,4.07
2023-04-19T16:06:23.544Z,4.07
2023-04-19T16:08:51.075Z,3.90
2023-04-19T16:11:18.578Z,4.70
2023-04-19T16:13:45.888Z,3.83
2023-04-19T16:16:12.896Z,4.70
2023-04-19T16:18:40.413Z,4.95
2023-04-19T16:21:07.359Z,4.68
2023-04-19T16:23:34.842Z,5.40
2023-04-19T16:26:01.930Z,4.50
2023-04-19T16:28:29.660Z,5.22
2023-04-19T16:30:57.299Z,5.50
2023-04-19T16:33:25.012Z,5.10
2023-04-19T16:35:52.124Z,4.82
2023-04-19T16:38:19.819Z,5.10
2023-04-19T16:40:48.700Z,4.68
2023-04-19T16:43:16.208Z,5.15
2023-04-19T16:45:43.294Z,5.10
2023-04-19T16:48:10.952Z,4.80
2023-04-19T16:50:38.087Z,4.90
2023-04-19T16:53:05.824Z,5.60
2023-04-19T16:55:32.806Z,5.50
2023-04-19T16:58:00.049Z,4.70
2023-04-19T17:00:27.428Z,5.30
2023-04-19T17:02:55.340Z,5.57
2023-04-19T17:05:22.949Z,4.78
2023-04-19T17:07:52.136Z,5.25
2023-04-19T17:10:19.980Z,5.28
2023-04-19T17:12:47.517Z,6.43
2023-04-19T17:15:14.603Z,5.93
2023-04-19T17:17:42.886Z,6.05
2023-04-19T17:20:10.381Z,7.25
2023-04-19T17:22:38.001Z,6.97
2023-04-19T17:25:05.294Z,7.22
2023-04-19T17:27:33.546Z,7.82
2023-04-19T17:30:00.504Z,10.63
2023-04-19T17:32:28.021Z,9.25
2023-04-19T17:34:55.065Z,8.32
2023-04-19T17:37:22.243Z,8.25
2023-04-19T17:39:49.125Z,9.13
2023-04-19T17:42:16.546Z,9.02
2023-04-19T17:44:43.548Z,9.88
2023-04-19T17:47:10.942Z,9.52
2023-04-19T17:49:38.482Z,10.18
2023-04-19T17:52:05.800Z,9.38
2023-04-19T17:54:32.955Z,10.30
2023-04-19T17:57:02.561Z,9.98
2023-04-19T17:59:29.860Z,10.45
2023-04-19T18:01:57.415Z,11.13
2023-04-19T18:04:24.759Z,10.52
2023-04-19T18:06:52.410Z,10.82
2023-04-19T18:09:20.267Z,10.52
2023-04-19T18:11:47.837Z,10.73
2023-04-19T18:14:15.432Z,11.05
2023-04-19T18:16:42.802Z,10.95
2023-04-19T18:19:10.293Z,10.27
2023-04-19T18:21:37.688Z,10.02
2023-04-19T18:24:05.612Z,10.63
2023-04-19T18:26:40.508Z,9.65
2023-04-19T18:29:07.763Z,9.23
2023-04-19T18:31:35.102Z,10.15
2023-04-19T18:34:02.973Z,10.13
2023-04-19T18:36:30.323Z,9.35
2023-04-19T18:38:58.153Z,10.57
2023-04-19T18:41:25.800Z,10.32
2023-04-19T18:44:24.681Z,11.38
2023-04-19T18:46:42.252Z,10.75
2023-04-19T18:49:10.205Z,9.52
2023-04-19T18:51:38.049Z,10.52
2023-04-19T18:54:05.005Z,11.20
2023-04-19T18:57:10.864Z,11.07
2023-04-19T18:59:19.826Z,10.40
2023-04-19T19:01:48.191Z,10.35
2023-04-19T19:06:51.703Z,10.88
2023-04-19T19:09:21.488Z,9.40
2023-04-19T19:11:56.545Z,9.02
2023-04-19T19:14:23.804Z,9.52
2023-04-19T19:16:52.950Z,10.10
2023-04-19T19:19:22.515Z,8.48
2023-04-19T19:21:52.331Z,9.05
2023-04-19T19:24:19.313Z,8.60
2023-04-19T19:26:46.731Z,7.20
2023-04-19T19:29:16.321Z,7.00
2023-04-19T19:31:43.850Z,7.03
2023-04-19T19:34:25.455Z,6.20
2023-04-19T19:36:56.467Z,6.18
2023-04-19T19:39:23.427Z,6.15
2023-04-19T19:42:05.135Z,5.95
2023-04-19T19:44:33.452Z,6.53
2023-04-19T19:47:00.886Z,5.95
2023-04-19T19:49:28.556Z,6.22
2023-04-19T19:51:59.311Z,4.95
2023-04-19T19:54:27.170Z,5.53
2023-04-19T19:57:31.744Z,4.45
2023-04-19T19:59:50.423Z,4.50
2023-04-19T20:02:22.639Z,4.90
2023-04-19T20:04:51.035Z,4.88
2023-04-19T20:07:32.752Z,4.97
2023-04-19T20:10:12.955Z,4.80
2023-04-19T20:12:42.963Z,5.68
2023-04-19T20:15:13.664Z,4.80
2023-04-19T20:17:41.548Z,4.70
2023-04-19T20:20:11.197Z,5.10
2023-04-19T20:22:38.765Z,5.18
2023-04-19T20:25:06.793Z,4.35
2023-04-19T20:27:34.651Z,4.68
2023-04-19T20:30:01.638Z,5.57
2023-04-19T20:32:29.208Z,5.15
2023-04-19T20:34:56.174Z,4.70
2023-04-19T20:37:24.200Z,4.38
2023-04-19T20:39:51.096Z,4.97
2023-04-19T20:42:18.705Z,5.75
2023-04-19T20:44:45.696Z,5.05
2023-04-19T20:47:13.082Z,5.13
2023-04-19T20:49:41.172Z,5.20
2023-04-19T20:52:08.671Z,4.93
2023-04-19T20:54:36.769Z,5.78
2023-04-19T20:57:05.051Z,5.25
2023-04-19T20:59:32.705Z,4.93
2023-04-19T21:02:00.293Z,5.38
2023-04-19T21:04:27.638Z,5.28
2023-04-19T21:06:54.994Z,5.70
2023-04-19T21:09:22.410Z,5.38
2023-04-19T21:11:49.870Z,5.25
2023-04-19T21:14:16.811Z,5.80
2023-04-19T21:16:44.084Z,5.97
2023-04-19T21:19:11.469Z,5.75
2023-04-19T21:21:38.662Z,5.95
2023-04-19T21:24:05.861Z,5.80
2023-04-19T21:26:33.461Z,5.85
2023-04-19T21:29:00.763Z,5.93
2023-04-19T21:31:28.055Z,6.70
2023-04-19T21:33:55.609Z,6.20
2023-04-19T21:36:22.772Z,6.40
2023-04-19T21:38:50.093Z,7.03
2023-04-19T21:41:17.544Z,6.93
2023-04-19T21:43:44.658Z,7.03
2023-04-19T21:46:11.858Z,7.00
2023-04-19T21:48:38.778Z,7.43
2023-04-19T21:51:06.145Z,7.30
2023-04-19T21:53:33.082Z,7.53
2023-04-19T21:56:01.714Z,6.68
2023-04-19T21:58:28.599Z,7.20
2023-04-19T22:00:56.637Z,7.18
2023-04-19T22:03:23.680Z,7.50
2023-04-19T22:05:51.761Z,7.25
2023-04-19T22:08:18.882Z,7.75
2023-04-19T22:10:46.406Z,7.80
2023-04-19T22:13:14.016Z,9.00
2023-04-19T22:15:42.679Z,7.93
2023-04-19T22:18:09.656Z,7.90
2023-04-19T22:20:38.472Z,7.32
2023-04-19T22:23:05.538Z,8.38
2023-04-19T22:25:32.698Z,8.02
2023-04-19T22:27:59.654Z,7.35
2023-04-19T22:30:27.345Z,8.68
2023-04-19T22:32:54.276Z,7.72
2023-04-19T22:35:22.822Z,8.27
2023-04-19T22:37:50.477Z,7.93
2023-04-19T22:40:17.944Z,8.50
2023-04-19T22:42:44.838Z,7.88
2023-04-19T22:45:12.740Z,7.80
2023-04-19T22:47:39.685Z,7.85
2023-04-19T22:50:09.143Z,8.32
2023-04-19T22:52:36.215Z,8.88
2023-04-19T22:55:04.150Z,8.57
2023-04-19T22:57:31.212Z,8.65
2023-04-19T22:59:58.604Z,8.23
2023-04-19T23:02:25.682Z,8.30
2023-04-19T23:04:54.582Z,8.18
2023-04-19T23:07:21.973Z,8.55
2023-04-19T23:09:51.061Z,8.27
2023-04-19T23:12:18.458Z,8.90
2023-04-19T23:14:48.359Z,8.07
2023-04-19T23:17:16.001Z,8.80
2023-04-19T23:19:43.590Z,8.85
2023-04-19T23:22:11.068Z,9.10
2023-04-19T23:24:40.625Z,9.23
2023-04-19T23:27:07.932Z,8.32
2023-04-19T23:29:35.059Z,8.98
2023-04-19T23:32:02.188Z,8.63
2023-04-19T23:34:29.352Z,8.90
2023-04-19T23:36:57.001Z,8.90
2023-04-19T23:39:24.178Z,8.23
2023-04-19T23:41:51.477Z,8.70
2023-04-19T23:44:18.765Z,8.15
2023-04-19T23:46:45.990Z,8.23
2023-04-19T23:49:13.470Z,8.52
2023-04-19T23:51:40.377Z,8.55
2023-04-19T23:54:07.492Z,8.38
2023-04-19T23:56:34.766Z,8.68
2023-04-19T23:59:01.928Z,9.20
